Time,TemperatureF,DewpointF,PressureIn,WindDirection,WindDirectionDegrees,WindSpeedMPH,WindSpeedGustMPH,Humidity,HourlyPrecipIn,Conditions,Clouds,dailyrainin,SoftwareType,DateUTC
2013-06-06 00:02:00,51.0,49.0,29.73,ENE,75,0.0,1.0,93,0.02,,,0.12,,2013-06-06 08:02:00,
2013-06-06 00:12:00,51.0,49.0,29.73,ENE,75,0.0,1.0,93,0.02,,,0.12,,2013-06-06 08:12:00,
2013-06-06 00:22:00,50.0,48.0,29.74,ENE,76,0.0,0.0,94,0.02,,,0.12,,2013-06-06 08:22:00,
2013-06-06 00:32:00,49.0,48.0,29.75,ENE,76,0.0,0.0,95,0.02,,,0.12,,2013-06-06 08:32:00,
2013-06-06 00:42:00,49.0,48.0,29.75,ENE,76,0.0,1.0,96,0.01,,,0.12,,2013-06-06 08:42:00,
2013-06-06 00:52:00,49.0,48.0,29.75,ENE,76,0.0,1.0,96,0.01,,,0.12,,2013-06-06 08:52:00,
2013-06-06 01:02:00,48.0,47.0,29.75,ENE,76,0.0,0.0,95,0.00,,,0.10,,2013-06-06 09:02:00,
2013-06-06 01:12:00,48.0,47.0,29.75,ENE,76,0.0,0.0,95,0.00,,,0.10,,2013-06-06 09:12:00,
2013-06-06 01:22:00,48.0,47.0,29.75,ENE,75,0.0,0.0,95,0.00,,,0.10,,2013-06-06 09:22:00,
2013-06-06 01:33:00,47.0,46.0,29.75,ENE,76,0.0,0.0,96,0.00,,,0.10,,2013-06-06 09:33:00,
2013-06-06 01:43:00,47.0,46.0,29.75,ENE,76,0.0,0.0,96,0.00,,,0.10,,2013-06-06 09:43:00,
2013-06-06 01:53:00,47.0,46.0,29.75,ENE,76,0.0,0.0,96,0.00,,,0.10,,2013-06-06 09:53:00,
2013-06-06 02:02:00,46.0,45.0,29.76,ENE,76,0.0,0.0,96,0.00,,,0.10,,2013-06-06 10:02:00,
2013-06-06 02:12:00,46.0,45.0,29.76,ENE,76,0.0,0.0,96,0.00,,,0.10,,2013-06-06 10:12:00,
2013-06-06 02:22:00,46.0,45.0,29.76,ENE,76,0.0,0.0,96,0.00,,,0.10,,2013-06-06 10:22:00,
2013-06-06 02:33:00,46.0,45.0,29.76,ENE,76,0.0,0.0,97,0.00,,,0.10,,2013-06-06 10:33:00,
2013-06-06 02:42:00,46.0,45.0,29.76,ENE,76,0.0,0.0,97,0.00,,,0.10,,2013-06-06 10:42:00,
2013-06-06 02:52:00,45.0,44.0,29.76,ENE,75,0.0,0.0,97,0.00,,,0.10,,2013-06-06 10:52:00,
2013-06-06 03:02:00,45.0,44.0,29.76,ENE,76,0.0,0.0,97,0.00,,,0.10,,2013-06-06 11:02:00,
2013-06-06 03:12:00,45.0,44.0,29.76,ENE,76,0.0,0.0,97,0.00,,,0.10,,2013-06-06 11:12:00,
2013-06-06 03:22:00,45.0,44.0,29.76,ENE,76,0.0,0.0,97,0.00,,,0.10,,2013-06-06 11:22:00,
2013-06-06 03:32:00,46.0,45.0,29.76,East,96,0.0,2.0,98,0.00,,,0.10,,2013-06-06 11:32:00,
2013-06-06 03:42:00,46.0,45.0,29.76,East,96,0.0,2.0,98,0.00,,,0.10,,2013-06-06 11:42:00,
2013-06-06 03:52:00,45.0,44.0,29.76,East,96,0.0,1.0,96,0.00,,,0.10,,2013-06-06 11:52:00,
2013-06-06 04:02:00,44.0,43.0,29.76,East,95,0.0,0.0,97,0.00,,,0.10,,2013-06-06 12:02:00,
2013-06-06 04:12:00,44.0,43.0,29.76,East,95,0.0,0.0,97,0.00,,,0.10,,2013-06-06 12:12:00,
2013-06-06 04:22:00,44.0,43.0,29.76,East,96,0.0,0.0,97,0.00,,,0.10,,2013-06-06 12:22:00,
2013-06-06 04:32:00,43.0,42.0,29.76,East,96,0.0,0.0,97,0.00,,,0.10,,2013-06-06 12:32:00,
2013-06-06 04:42:00,43.0,42.0,29.76,East,96,0.0,0.0,97,0.00,,,0.10,,2013-06-06 12:42:00,
2013-06-06 04:52:00,43.0,42.0,29.76,East,95,0.0,0.0,97,0.00,,,0.10,,2013-06-06 12:52:00,
2013-06-06 05:02:00,43.0,42.0,29.76,East,96,0.0,0.0,97,0.00,,,0.09,,2013-06-06 13:02:00,
2013-06-06 05:12:00,43.0,42.0,29.76,East,96,0.0,0.0,97,0.00,,,0.09,,2013-06-06 13:12:00,
2013-06-06 05:22:00,43.0,42.0,29.77,East,95,0.0,0.0,98,0.00,,,0.09,,2013-06-06 13:22:00,
2013-06-06 05:32:00,43.0,42.0,29.77,East,96,0.0,0.0,98,0.00,,,0.09,,2013-06-06 13:32:00,
2013-06-06 05:42:00,43.0,42.0,29.77,East,96,0.0,0.0,98,0.00,,,0.09,,2013-06-06 13:42:00,
2013-06-06 05:52:00,43.0,42.0,29.76,East,96,0.0,0.0,98,0.00,,,0.09,,2013-06-06 13:52:00,
2013-06-06 06:02:00,43.0,42.0,29.76,East,96,0.0,0.0,98,0.00,,,0.09,,2013-06-06 14:02:00,
2013-06-06 06:12:00,43.0,42.0,29.76,East,96,0.0,0.0,98,0.00,,,0.09,,2013-06-06 14:12:00,
2013-06-06 06:22:00,43.0,42.0,29.77,East,96,0.0,0.0,98,0.00,,,0.09,,2013-06-06 14:22:00,
2013-06-06 06:32:00,44.0,43.0,29.76,East,96,0.0,0.0,98,0.00,,,0.09,,2013-06-06 14:32:00,
2013-06-06 06:42:00,44.0,43.0,29.76,East,96,0.0,0.0,98,0.00,,,0.09,,2013-06-06 14:42:00,
2013-06-06 06:52:00,44.0,43.0,29.77,East,96,0.0,0.0,98,0.00,,,0.09,,2013-06-06 14:52:00,
2013-06-06 07:02:00,44.0,44.0,29.77,East,96,0.0,0.0,99,0.00,,,0.09,,2013-06-06 15:02:00,
2013-06-06 07:12:00,44.0,44.0,29.77,East,96,0.0,0.0,99,0.00,,,0.09,,2013-06-06 15:12:00,
2013-06-06 07:22:00,45.0,44.0,29.77,East,95,0.0,0.0,98,0.00,,,0.09,,2013-06-06 15:22:00,
2013-06-06 07:32:00,46.0,46.0,29.77,East,96,0.0,2.0,99,0.00,,,0.09,,2013-06-06 15:32:00,
2013-06-06 07:43:00,46.0,46.0,29.77,East,96,0.0,2.0,99,0.00,,,0.09,,2013-06-06 15:43:00,
2013-06-06 07:52:00,48.0,46.0,29.77,NE,44,1.0,5.0,93,0.00,,,0.09,,2013-06-06 15:52:00,
2013-06-06 08:03:00,49.0,47.0,29.77,ENE,66,1.0,4.0,92,0.00,,,0.09,,2013-06-06 16:03:00,
2013-06-06 08:12:00,49.0,47.0,29.77,ENE,66,1.0,4.0,92,0.00,,,0.09,,2013-06-06 16:12:00,
2013-06-06 08:22:00,50.0,47.0,29.77,NE,36,0.0,3.0,90,0.00,,,0.09,,2013-06-06 16:22:00,
2013-06-06 08:33:00,50.0,46.0,29.77,NE,37,1.0,3.0,87,0.00,,,0.09,,2013-06-06 16:33:00,
2013-06-06 08:43:00,50.0,46.0,29.77,NE,37,1.0,3.0,87,0.00,,,0.09,,2013-06-06 16:43:00,
2013-06-06 08:52:00,51.0,47.0,29.76,NNE,19,1.0,4.0,85,0.00,,,0.09,,2013-06-06 16:52:00,
2013-06-06 09:03:00,52.0,47.0,29.76,NNE,19,0.0,4.0,83,0.00,,,0.09,,2013-06-06 17:03:00,
2013-06-06 09:12:00,52.0,47.0,29.76,NNE,19,0.0,4.0,83,0.00,,,0.09,,2013-06-06 17:12:00,
2013-06-06 09:22:00,53.0,48.0,29.76,NE,54,0.0,4.0,83,0.00,,,0.09,,2013-06-06 17:22:00,
2013-06-06 09:32:00,53.0,48.0,29.76,NNE,22,0.0,6.0,82,0.00,,,0.09,,2013-06-06 17:32:00,
2013-06-06 09:42:00,53.0,48.0,29.76,NNE,22,0.0,6.0,82,0.00,,,0.09,,2013-06-06 17:42:00,
2013-06-06 09:52:00,54.0,48.0,29.76,ENE,71,1.0,5.0,80,0.00,,,0.09,,2013-06-06 17:52:00,
2013-06-06 10:03:00,53.0,47.0,29.76,ESE,110,2.0,7.0,81,0.00,,,0.09,,2013-06-06 18:03:00,
2013-06-06 10:12:00,53.0,47.0,29.76,ESE,110,2.0,7.0,81,0.00,,,0.09,,2013-06-06 18:12:00,
2013-06-06 10:22:00,53.0,47.0,29.76,East,91,0.0,3.0,81,0.00,,,0.09,,2013-06-06 18:22:00,
2013-06-06 10:33:00,53.0,47.0,29.76,NE,51,1.0,5.0,81,0.00,,,0.09,,2013-06-06 18:33:00,
2013-06-06 10:42:00,53.0,47.0,29.76,NE,51,1.0,5.0,81,0.00,,,0.09,,2013-06-06 18:42:00,
2013-06-06 10:52:00,55.0,48.0,29.76,NNE,32,1.0,4.0,78,0.00,,,0.09,,2013-06-06 18:52:00,
2013-06-06 11:02:00,56.0,48.0,29.75,East,101,2.0,7.0,75,0.00,,,0.08,,2013-06-06 19:02:00,
2013-06-06 11:12:00,56.0,48.0,29.75,East,101,2.0,7.0,75,0.00,,,0.08,,2013-06-06 19:12:00,
2013-06-06 11:23:00,57.0,49.0,29.75,SE,131,0.0,7.0,74,0.00,,,0.08,,2013-06-06 19:23:00,
2013-06-06 11:33:00,58.0,49.0,29.75,ESE,107,3.0,8.0,72,0.00,,,0.08,,2013-06-06 19:33:00,
2013-06-06 11:42:00,58.0,49.0,29.75,ESE,107,3.0,8.0,72,0.00,,,0.08,,2013-06-06 19:42:00,
2013-06-06 11:52:00,58.0,49.0,29.74,East,86,3.0,7.0,71,0.00,,,0.08,,2013-06-06 19:52:00,
2013-06-06 12:02:00,58.0,48.0,29.73,East,92,4.0,9.0,70,0.00,,,0.08,,2013-06-06 20:02:00,
2013-06-06 12:12:00,58.0,48.0,29.73,East,92,4.0,9.0,70,0.00,,,0.08,,2013-06-06 20:12:00,
2013-06-06 12:22:00,57.0,50.0,29.73,ESE,103,0.0,4.0,77,0.00,,,0.08,,2013-06-06 20:22:00,
2013-06-06 12:33:00,57.0,48.0,29.73,East,80,1.0,3.0,73,0.00,,,0.08,,2013-06-06 20:33:00,
2013-06-06 12:42:00,57.0,48.0,29.73,East,80,1.0,3.0,73,0.00,,,0.08,,2013-06-06 20:42:00,
2013-06-06 12:52:00,59.0,48.0,29.73,NNE,17,2.0,7.0,68,0.00,,,0.08,,2013-06-06 20:52:00,
2013-06-06 13:03:00,59.0,48.0,29.72,East,84,1.0,7.0,66,0.00,,,0.08,,2013-06-06 21:03:00,
2013-06-06 13:12:00,59.0,48.0,29.72,East,84,1.0,7.0,66,0.00,,,0.08,,2013-06-06 21:12:00,
2013-06-06 13:22:00,60.0,49.0,29.72,ESE,108,1.0,7.0,68,0.00,,,0.08,,2013-06-06 21:22:00,
2013-06-06 13:33:00,58.0,46.0,29.71,ESE,107,0.0,5.0,65,0.00,,,0.08,,2013-06-06 21:33:00,
2013-06-06 13:43:00,58.0,46.0,29.71,ESE,107,0.0,5.0,65,0.00,,,0.08,,2013-06-06 21:43:00,
2013-06-06 13:53:00,57.0,43.0,29.71,East,87,1.0,5.0,60,0.00,,,0.08,,2013-06-06 21:53:00,
2013-06-06 14:02:00,59.0,44.0,29.71,ESE,107,3.0,7.0,58,0.00,,,0.08,,2013-06-06 22:02:00,
2013-06-06 14:12:00,59.0,44.0,29.71,ESE,107,3.0,7.0,58,0.00,,,0.08,,2013-06-06 22:12:00,
2013-06-06 14:23:00,60.0,46.0,29.70,East,83,4.0,7.0,60,0.00,,,0.08,,2013-06-06 22:23:00,
2013-06-06 14:33:00,60.0,47.0,29.70,NE,52,1.0,7.0,62,0.00,,,0.08,,2013-06-06 22:33:00,
2013-06-06 14:43:00,60.0,47.0,29.70,NE,52,1.0,7.0,62,0.00,,,0.08,,2013-06-06 22:43:00,
2013-06-06 14:52:00,61.0,47.0,29.69,East,86,5.0,9.0,60,0.00,,,0.08,,2013-06-06 22:52:00,
2013-06-06 15:02:00,62.0,46.0,29.69,ESE,103,5.0,11.0,56,0.00,,,0.08,,2013-06-06 23:02:00,
2013-06-06 15:12:00,62.0,46.0,29.69,ESE,103,5.0,11.0,56,0.00,,,0.08,,2013-06-06 23:12:00,
2013-06-06 15:22:00,62.0,51.0,29.69,WSW,255,1.0,5.0,66,0.02,,,0.10,,2013-06-06 23:22:00,
2013-06-06 15:33:00,54.0,48.0,29.69,North,5,0.0,6.0,79,0.12,,,0.20,,2013-06-06 23:33:00,
2013-06-06 15:42:00,54.0,48.0,29.69,North,5,0.0,6.0,79,0.12,,,0.20,,2013-06-06 23:42:00,
2013-06-06 15:52:00,53.0,49.0,29.69,North,5,0.0,2.0,86,0.12,,,0.20,,2013-06-06 23:52:00,
2013-06-06 16:02:00,54.0,49.0,29.69,NE,38,0.0,3.0,84,0.12,,,0.20,,2013-06-07 00:02:00,
2013-06-06 16:22:00,55.0,50.0,29.70,ENE,69,1.0,4.0,82,0.09,,,0.20,,2013-06-07 00:22:00,
2013-06-06 16:32:00,55.0,51.0,29.70,SSW,206,0.0,3.0,86,0.00,,,0.20,,2013-06-07 00:32:00,
2013-06-06 16:42:00,55.0,51.0,29.70,SSW,206,0.0,3.0,86,0.00,,,0.20,,2013-06-07 00:42:00,
2013-06-06 16:52:00,54.0,50.0,29.69,West,263,0.0,1.0,87,0.02,,,0.22,,2013-06-07 00:52:00,
2013-06-06 17:02:00,54.0,52.0,29.69,West,263,0.0,2.0,92,0.04,,,0.24,,2013-06-07 01:02:00,
2013-06-06 17:12:00,54.0,52.0,29.69,West,263,0.0,2.0,92,0.04,,,0.24,,2013-06-07 01:12:00,
2013-06-06 17:22:00,54.0,51.0,29.68,West,263,0.0,2.0,91,0.05,,,0.25,,2013-06-07 01:22:00,
2013-06-06 17:32:00,56.0,52.0,29.69,NW,306,0.0,2.0,87,0.05,,,0.25,,2013-06-07 01:32:00,
2013-06-06 17:42:00,56.0,52.0,29.69,NW,306,0.0,2.0,87,0.05,,,0.25,,2013-06-07 01:42:00,
2013-06-06 17:52:00,57.0,52.0,29.68,NW,306,0.0,2.0,83,0.03,,,0.25,,2013-06-07 01:52:00,
2013-06-06 18:02:00,59.0,54.0,29.68,NW,306,0.0,1.0,85,0.01,,,0.21,,2013-06-07 02:02:00,
2013-06-06 18:12:00,59.0,54.0,29.68,NW,306,0.0,1.0,85,0.01,,,0.21,,2013-06-07 02:12:00,
2013-06-06 18:22:00,59.0,49.0,29.67,NNW,340,1.0,4.0,69,0.00,,,0.21,,2013-06-07 02:22:00,
2013-06-06 18:32:00,59.0,54.0,29.66,NNW,340,0.0,1.0,82,0.00,,,0.21,,2013-06-07 02:32:00,
2013-06-06 18:42:00,59.0,54.0,29.66,NNW,340,0.0,1.0,82,0.00,,,0.21,,2013-06-07 02:42:00,
2013-06-06 18:52:00,58.0,51.0,29.66,NNW,340,0.0,3.0,77,0.00,,,0.21,,2013-06-07 02:52:00,
2013-06-06 19:02:00,59.0,53.0,29.66,NNW,340,0.0,3.0,80,0.00,,,0.20,,2013-06-07 03:02:00,
2013-06-06 19:12:00,59.0,53.0,29.66,NNW,340,0.0,3.0,80,0.00,,,0.20,,2013-06-07 03:12:00,
2013-06-06 19:22:00,58.0,52.0,29.65,NNE,13,0.0,3.0,80,0.00,,,0.20,,2013-06-07 03:22:00,
2013-06-06 19:32:00,58.0,50.0,29.65,NNE,13,0.0,1.0,75,0.00,,,0.20,,2013-06-07 03:32:00,
2013-06-06 19:43:00,58.0,50.0,29.65,NNE,13,0.0,1.0,75,0.00,,,0.20,,2013-06-07 03:43:00,
2013-06-06 19:53:00,59.0,49.0,29.65,NNE,13,0.0,2.0,70,0.00,,,0.20,,2013-06-07 03:53:00,
2013-06-06 20:03:00,59.0,48.0,29.65,WNW,283,0.0,3.0,66,0.00,,,0.19,,2013-06-07 04:03:00,
2013-06-06 20:12:00,59.0,48.0,29.65,WNW,283,0.0,3.0,66,0.00,,,0.19,,2013-06-07 04:12:00,
2013-06-06 20:22:00,59.0,46.0,29.65,WNW,283,0.0,2.0,63,0.00,,,0.19,,2013-06-07 04:22:00,
2013-06-06 20:33:00,58.0,46.0,29.65,WNW,283,0.0,1.0,65,0.00,,,0.19,,2013-06-07 04:33:00,
2013-06-06 20:42:00,58.0,46.0,29.65,WNW,283,0.0,1.0,65,0.00,,,0.19,,2013-06-07 04:42:00,
2013-06-06 20:53:00,58.0,47.0,29.65,WNW,283,0.0,0.0,66,0.00,,,0.19,,2013-06-07 04:53:00,
2013-06-06 21:02:00,58.0,48.0,29.65,WNW,283,0.0,2.0,69,0.00,,,0.19,,2013-06-07 05:02:00,
2013-06-06 21:12:00,58.0,48.0,29.65,WNW,283,0.0,2.0,69,0.00,,,0.19,,2013-06-07 05:12:00,
2013-06-06 21:22:00,58.0,47.0,29.66,West,281,0.0,3.0,67,0.00,,,0.19,,2013-06-07 05:22:00,
2013-06-06 21:32:00,58.0,47.0,29.66,West,281,0.0,2.0,67,0.00,,,0.19,,2013-06-07 05:32:00,
2013-06-06 21:42:00,58.0,47.0,29.66,West,281,0.0,2.0,67,0.00,,,0.19,,2013-06-07 05:42:00,
2013-06-06 21:52:00,58.0,48.0,29.66,West,280,0.0,0.0,69,0.00,,,0.19,,2013-06-07 05:52:00,
2013-06-06 22:02:00,57.0,47.0,29.66,West,281,0.0,0.0,70,0.00,,,0.19,,2013-06-07 06:02:00,
2013-06-06 22:12:00,57.0,47.0,29.66,West,281,0.0,0.0,70,0.00,,,0.19,,2013-06-07 06:12:00,
2013-06-06 22:22:00,56.0,47.0,29.66,West,281,0.0,0.0,71,0.00,,,0.19,,2013-06-07 06:22:00,
2013-06-06 22:32:00,55.0,46.0,29.66,West,280,0.0,0.0,71,0.00,,,0.19,,2013-06-07 06:32:00,
2013-06-06 22:42:00,55.0,46.0,29.66,West,280,0.0,0.0,71,0.00,,,0.19,,2013-06-07 06:42:00,
2013-06-06 22:52:00,55.0,46.0,29.66,West,281,0.0,0.0,72,0.00,,,0.19,,2013-06-07 06:52:00,
2013-06-06 23:02:00,55.0,47.0,29.67,West,281,0.0,0.0,73,0.00,,,0.19,,2013-06-07 07:02:00,
2013-06-06 23:12:00,55.0,47.0,29.67,West,281,0.0,0.0,73,0.00,,,0.19,,2013-06-07 07:12:00,
2013-06-06 23:22:00,55.0,47.0,29.67,West,281,0.0,0.0,73,0.00,,,0.19,,2013-06-07 07:22:00,
2013-06-06 23:32:00,55.0,47.0,29.67,West,280,0.0,0.0,74,0.00,,,0.19,,2013-06-07 07:32:00,
2013-06-06 23:42:00,55.0,47.0,29.67,West,280,0.0,0.0,74,0.00,,,0.19,,2013-06-07 07:42:00,
2013-06-06 23:52:00,54.0,47.0,29.68,West,281,0.0,1.0,76,0.00,,,0.19,,2013-06-07 07:52:00,